createdAt,value
2023-03-15T00:00:55.326Z,8.10
2023-03-15T00:03:22.361Z,7.90
2023-03-15T00:05:49.285Z,8.00
2023-03-15T00:08:16.005Z,7.90
2023-03-15T00:10:43.303Z,7.90
2023-03-15T00:13:11.724Z,7.90
2023-03-15T00:15:44.509Z,7.80
2023-03-15T00:18:11.351Z,7.80
2023-03-15T00:20:38.155Z,7.80
2023-03-15T00:23:05.808Z,7.90
2023-03-15T00:25:32.487Z,7.80
2023-03-15T00:27:59.159Z,7.80
2023-03-15T00:30:25.804Z,7.80
2023-03-15T00:32:53.937Z,7.80
2023-03-15T00:35:21.348Z,7.90
2023-03-15T00:37:47.968Z,7.90
2023-03-15T00:40:14.703Z,7.80
2023-03-15T00:42:41.361Z,7.80
2023-03-15T00:45:08.314Z,7.80
2023-03-15T00:47:35.000Z,7.90
2023-03-15T00:50:01.638Z,7.90
2023-03-15T00:52:28.274Z,7.90
2023-03-15T00:54:55.168Z,7.90
2023-03-15T00:57:22.136Z,7.90
2023-03-15T00:59:53.255Z,7.90
2023-03-15T01:02:22.281Z,7.90
2023-03-15T01:04:49.778Z,7.90
2023-03-15T01:07:16.846Z,7.80
2023-03-15T01:09:46.290Z,7.80
2023-03-15T01:12:14.353Z,7.80
2023-03-15T01:14:41.034Z,7.90
2023-03-15T01:17:07.723Z,7.80
2023-03-15T01:19:34.481Z,7.80
2023-03-15T01:22:01.203Z,7.80
2023-03-15T01:24:27.853Z,7.80
2023-03-15T01:26:54.468Z,7.80
2023-03-15T01:29:21.157Z,7.70
2023-03-15T01:31:47.994Z,7.70
2023-03-15T01:34:16.093Z,7.70
2023-03-15T01:36:42.846Z,7.70
2023-03-15T01:39:09.958Z,7.60
2023-03-15T01:41:37.958Z,7.50
2023-03-15T01:44:04.693Z,7.30
2023-03-15T01:46:35.261Z,7.20
2023-03-15T01:49:02.088Z,7.00
2023-03-15T01:51:31.778Z,6.90
2023-03-15T01:54:09.230Z,6.80
2023-03-15T01:56:36.790Z,6.70
2023-03-15T01:59:03.810Z,6.60
2023-03-15T02:01:31.226Z,6.40
2023-03-15T02:03:59.877Z,6.30
2023-03-15T02:06:26.641Z,6.20
2023-03-15T02:08:55.198Z,6.20
2023-03-15T02:11:22.198Z,6.00
2023-03-15T02:13:48.941Z,6.00
2023-03-15T02:16:16.141Z,5.90
2023-03-15T02:18:42.836Z,5.90
2023-03-15T02:21:22.372Z,5.80
2023-03-15T02:23:51.766Z,5.80
2023-03-15T02:26:35.039Z,5.70
2023-03-15T02:29:01.678Z,5.60
2023-03-15T02:31:28.334Z,5.60
2023-03-15T02:33:57.966Z,5.50
2023-03-15T02:36:25.043Z,5.40
2023-03-15T02:38:51.946Z,5.40
2023-03-15T02:41:19.914Z,5.30
2023-03-15T02:43:46.897Z,5.30
2023-03-15T02:46:13.639Z,5.20
2023-03-15T02:48:40.835Z,5.10
2023-03-15T02:51:07.836Z,5.10
2023-03-15T02:53:35.221Z,5.00
2023-03-15T02:56:01.835Z,5.00
2023-03-15T02:58:28.869Z,5.00
2023-03-15T03:00:55.533Z,5.00
2023-03-15T03:03:22.316Z,5.00
2023-03-15T03:05:49.827Z,5.00
2023-03-15T03:08:16.695Z,5.00
2023-03-15T03:10:43.358Z,5.00
2023-03-15T03:13:10.064Z,5.00
2023-03-15T03:15:36.806Z,5.00
2023-03-15T03:18:03.584Z,5.00
2023-03-15T03:20:30.193Z,5.00
2023-03-15T03:22:56.893Z,5.10
2023-03-15T03:25:27.254Z,5.00
2023-03-15T03:27:57.238Z,5.00
2023-03-15T03:30:24.473Z,5.00
2023-03-15T03:32:51.498Z,5.00
2023-03-15T03:35:18.554Z,4.90
2023-03-15T03:37:47.448Z,4.90
2023-03-15T03:40:15.770Z,4.90
2023-03-15T03:42:42.493Z,4.80
2023-03-15T03:45:09.414Z,4.80
2023-03-15T03:47:38.547Z,4.80
2023-03-15T03:50:05.382Z,4.70
2023-03-15T03:52:32.087Z,4.80
2023-03-15T03:54:59.324Z,4.80
2023-03-15T03:57:26.069Z,4.70
2023-03-15T03:59:52.865Z,4.70
2023-03-15T04:02:20.679Z,4.70
2023-03-15T04:04:50.371Z,4.70
2023-03-15T04:07:17.210Z,4.60
2023-03-15T04:09:43.937Z,4.60
2023-03-15T04:12:10.969Z,4.60
2023-03-15T04:14:38.008Z,4.50
2023-03-15T04:20:56.377Z,4.50
2023-03-15T04:23:23.120Z,4.40
2023-03-15T04:25:50.224Z,4.40
2023-03-15T04:28:17.299Z,4.40
2023-03-15T04:30:45.467Z,4.40
2023-03-15T04:33:12.091Z,4.40
2023-03-15T04:35:44.983Z,4.40
2023-03-15T04:38:11.686Z,4.40
2023-03-15T04:40:39.419Z,4.40
2023-03-15T04:43:06.220Z,4.40
2023-03-15T04:45:32.978Z,4.30
2023-03-15T04:48:00.109Z,4.30
2023-03-15T04:50:26.956Z,4.30
2023-03-15T04:52:54.547Z,4.30
2023-03-15T04:55:21.246Z,4.30
2023-03-15T04:57:50.659Z,4.20
2023-03-15T05:00:18.007Z,4.20
2023-03-15T05:02:44.725Z,4.20
2023-03-15T05:05:11.933Z,4.20
2023-03-15T05:07:38.952Z,4.20
2023-03-15T05:10:08.359Z,4.30
2023-03-15T05:12:35.048Z,4.10
2023-03-15T05:15:02.307Z,4.10
2023-03-15T05:17:29.409Z,4.10
2023-03-15T05:19:57.922Z,4.10
2023-03-15T05:22:25.935Z,4.00
2023-03-15T05:24:53.868Z,4.00
2023-03-15T05:27:21.212Z,4.00
2023-03-15T05:29:55.221Z,4.00
2023-03-15T05:32:29.770Z,4.00
2023-03-15T05:34:56.494Z,4.00
2023-03-15T05:37:23.359Z,4.00
2023-03-15T05:39:50.614Z,4.10
2023-03-15T05:42:22.149Z,4.10
2023-03-15T05:44:49.173Z,4.20
2023-03-15T05:47:15.830Z,4.30
2023-03-15T05:49:42.485Z,4.30
2023-03-15T05:52:09.317Z,4.30
2023-03-15T05:54:36.000Z,4.30
2023-03-15T05:57:04.353Z,4.40
2023-03-15T05:59:33.304Z,4.50
2023-03-15T06:02:05.876Z,4.50
2023-03-15T06:04:37.245Z,4.50
2023-03-15T06:07:06.298Z,4.50
2023-03-15T06:09:34.199Z,4.40
2023-03-15T06:12:03.846Z,4.40
2023-03-15T06:14:34.707Z,4.40
2023-03-15T06:17:02.129Z,4.30
2023-03-15T06:19:29.544Z,4.30
2023-03-15T06:22:04.130Z,4.30
2023-03-15T06:24:32.457Z,4.30
2023-03-15T06:26:59.275Z,4.20
2023-03-15T06:29:27.036Z,4.30
2023-03-15T06:31:56.111Z,4.30
2023-03-15T06:34:26.239Z,4.30
2023-03-15T06:36:53.046Z,4.30
2023-03-15T06:39:24.776Z,4.40
2023-03-15T06:41:57.714Z,4.50
2023-03-15T06:44:24.774Z,4.50
2023-03-15T06:46:51.490Z,4.70
2023-03-15T06:49:18.848Z,4.80
2023-03-15T06:51:49.165Z,5.00
2023-03-15T06:54:17.113Z,5.00
2023-03-15T06:56:44.439Z,5.00
2023-03-15T06:59:19.216Z,5.10
2023-03-15T07:01:46.299Z,5.10
2023-03-15T07:04:13.271Z,5.20
2023-03-15T07:06:41.669Z,5.10
2023-03-15T07:09:09.615Z,5.10
2023-03-15T07:11:36.627Z,5.20
2023-03-15T07:14:07.454Z,5.30
2023-03-15T07:16:35.224Z,5.20
2023-03-15T07:19:08.543Z,5.20
2023-03-15T07:21:35.415Z,5.20
2023-03-15T07:24:02.984Z,5.20
2023-03-15T07:26:37.447Z,5.30
2023-03-15T07:29:09.604Z,5.30
2023-03-15T07:31:39.030Z,5.40
2023-03-15T07:34:11.652Z,5.40
2023-03-15T07:36:39.354Z,5.50
2023-03-15T07:39:07.562Z,5.60
2023-03-15T07:41:38.078Z,5.60
2023-03-15T07:44:06.146Z,5.70
2023-03-15T07:46:42.506Z,5.70
2023-03-15T07:49:10.378Z,5.70
2023-03-15T07:51:41.756Z,5.80
2023-03-15T07:54:21.897Z,5.90
2023-03-15T07:56:53.017Z,6.00
2023-03-15T07:59:21.831Z,6.10
2023-03-15T08:01:49.205Z,6.10
2023-03-15T08:04:26.862Z,6.20
2023-03-15T08:06:57.080Z,6.30
2023-03-15T08:09:28.420Z,6.50
2023-03-15T08:12:17.511Z,6.60
2023-03-15T08:14:49.534Z,6.70
2023-03-15T08:17:18.887Z,7.00
2023-03-15T08:19:54.051Z,7.10
2023-03-15T08:22:31.502Z,7.40
2023-03-15T08:25:02.438Z,7.60
2023-03-15T08:27:40.586Z,7.90
2023-03-15T08:30:15.827Z,7.90
2023-03-15T08:32:43.088Z,8.30
2023-03-15T08:35:15.528Z,8.20
2023-03-15T08:37:48.895Z,8.30
2023-03-15T08:40:38.242Z,8.50
2023-03-15T08:43:07.274Z,8.60
2023-03-15T08:45:51.040Z,8.80
2023-03-15T08:48:22.263Z,8.90
2023-03-15T08:50:50.117Z,8.90
2023-03-15T08:53:22.045Z,8.90
2023-03-15T08:55:50.957Z,9.10
2023-03-15T08:58:19.850Z,9.10
2023-03-15T09:00:49.595Z,9.00
2023-03-15T09:03:17.571Z,9.00
2023-03-15T09:05:56.845Z,9.00
2023-03-15T09:08:27.507Z,9.00
2023-03-15T09:10:59.083Z,9.00
2023-03-15T09:13:29.175Z,9.00
2023-03-15T09:16:00.176Z,9.00
2023-03-15T09:18:28.300Z,8.90
2023-03-15T09:20:56.742Z,8.80
2023-03-15T09:23:28.976Z,8.90
2023-03-15T09:25:59.943Z,9.10
2023-03-15T09:28:27.598Z,9.10
2023-03-15T09:31:01.303Z,9.10
2023-03-15T09:33:36.687Z,9.30
2023-03-15T09:36:04.093Z,9.20
2023-03-15T09:38:33.143Z,9.20
2023-03-15T09:41:00.496Z,9.10
2023-03-15T09:43:38.154Z,9.10
2023-03-15T09:46:12.286Z,9.10
2023-03-15T09:48:53.943Z,9.20
2023-03-15T09:51:49.480Z,9.20
2023-03-15T09:54:27.969Z,9.20
2023-03-15T09:57:15.582Z,9.30
2023-03-15T09:59:44.588Z,9.30
2023-03-15T10:02:24.068Z,9.20
2023-03-15T10:05:22.401Z,9.20
2023-03-15T10:07:49.150Z,9.10
2023-03-15T10:10:39.639Z,9.00
2023-03-15T10:13:14.799Z,9.00
2023-03-15T10:15:49.540Z,9.10
2023-03-15T10:18:32.077Z,9.30
2023-03-15T10:21:07.803Z,9.40
2023-03-15T10:23:45.839Z,9.20
2023-03-15T10:26:16.771Z,9.30
2023-03-15T10:28:44.834Z,9.30
2023-03-15T10:31:22.260Z,9.30
2023-03-15T10:33:56.655Z,9.40
2023-03-15T10:36:26.355Z,9.40
2023-03-15T10:38:54.582Z,9.30
2023-03-15T10:41:40.518Z,9.40
2023-03-15T10:44:13.432Z,9.50
2023-03-15T10:46:44.183Z,9.50
2023-03-15T10:51:55.335Z,9.60
2023-03-15T10:54:27.923Z,9.60
2023-03-15T11:00:17.491Z,9.50
2023-03-15T11:02:55.797Z,9.40
2023-03-15T11:05:27.042Z,9.40
2023-03-15T11:08:00.929Z,9.40
2023-03-15T11:10:31.229Z,9.40
2023-03-15T11:13:21.302Z,9.40
2023-03-15T11:15:55.885Z,9.60
2023-03-15T11:18:29.720Z,9.60
2023-03-15T11:21:06.861Z,9.70
2023-03-15T11:23:53.144Z,9.70
2023-03-15T11:26:32.976Z,9.80
2023-03-15T11:29:20.724Z,9.90
2023-03-15T11:34:50.881Z,9.80
2023-03-15T11:37:25.794Z,10.00
2023-03-15T11:40:17.104Z,9.90
2023-03-15T11:42:48.605Z,9.80
2023-03-15T11:45:28.775Z,9.90
2023-03-15T11:48:02.604Z,9.90
2023-03-15T11:50:40.692Z,9.80
2023-03-15T11:53:14.443Z,9.70
2023-03-15T11:55:42.137Z,9.70
2023-03-15T11:58:29.370Z,9.60
2023-03-15T12:01:09.545Z,9.50
2023-03-15T12:03:44.526Z,9.40
2023-03-15T12:06:27.455Z,9.30
2023-03-15T12:09:07.608Z,9.20
2023-03-15T12:11:38.665Z,9.20
2023-03-15T12:14:06.691Z,9.20
2023-03-15T12:16:43.083Z,9.20
2023-03-15T12:19:10.976Z,9.30
2023-03-15T12:21:38.816Z,9.40
2023-03-15T12:24:07.272Z,9.60
2023-03-15T12:26:51.916Z,9.80
2023-03-15T12:29:28.633Z,9.90
2023-03-15T12:32:04.627Z,9.90
2023-03-15T12:34:53.449Z,9.90
2023-03-15T12:37:24.642Z,9.80
2023-03-15T12:40:02.647Z,9.80
2023-03-15T12:42:44.013Z,9.70
2023-03-15T12:48:15.768Z,9.60
2023-03-15T12:50:53.620Z,9.60
2023-03-15T13:02:41.648Z,9.40
2023-03-15T13:05:42.563Z,9.20
2023-03-15T13:08:37.945Z,9.30
2023-03-15T13:11:28.652Z,9.50
2023-03-15T13:14:03.819Z,9.50
2023-03-15T13:16:47.562Z,9.50
2023-03-15T13:25:20.771Z,9.30
2023-03-15T13:27:59.539Z,9.30
2023-03-15T13:30:32.175Z,9.30
2023-03-15T13:33:10.600Z,9.30
2023-03-15T13:35:50.056Z,9.40
2023-03-15T13:38:29.465Z,9.30
2023-03-15T13:40:59.677Z,9.30
2023-03-15T13:46:23.916Z,9.30
2023-03-15T13:48:53.236Z,9.30
2023-03-15T13:51:23.864Z,9.40
2023-03-15T13:53:56.375Z,9.40
2023-03-15T13:56:48.970Z,9.40
2023-03-15T13:59:17.663Z,9.50
2023-03-15T14:01:48.294Z,9.60
2023-03-15T14:04:17.813Z,9.60
2023-03-15T14:07:09.363Z,9.60
2023-03-15T14:09:53.204Z,9.60
2023-03-15T14:12:31.427Z,9.50
2023-03-15T14:15:00.809Z,9.50
2023-03-15T14:20:17.147Z,9.40
2023-03-15T14:22:52.285Z,9.30
2023-03-15T14:25:23.090Z,9.30
2023-03-15T14:27:50.580Z,9.30
2023-03-15T14:30:21.973Z,9.40
2023-03-15T14:33:20.969Z,9.50
2023-03-15T14:38:37.583Z,9.70
2023-03-15T14:41:29.074Z,9.50
2023-03-15T14:43:57.230Z,9.50
2023-03-15T14:49:28.240Z,9.30
2023-03-15T14:52:06.530Z,9.20
2023-03-15T21:13:17.810Z,4.00
2023-03-15T21:32:41.984Z,3.80
2023-03-15T21:35:18.225Z,3.70
2023-03-15T21:43:32.142Z,3.70
2023-03-15T21:52:34.458Z,3.60
2023-03-15T22:00:48.290Z,3.50
2023-03-15T22:15:04.693Z,3.30
2023-03-15T22:17:41.494Z,3.20
2023-03-15T22:20:36.524Z,3.20
2023-03-15T22:26:15.874Z,3.10
2023-03-15T22:31:35.403Z,3.00
2023-03-15T22:34:04.964Z,3.00
2023-03-15T22:36:38.549Z,2.90
2023-03-15T22:51:53.158Z,3.00
2023-03-15T22:54:21.353Z,3.00
2023-03-15T22:56:48.095Z,3.10
2023-03-15T22:59:16.102Z,3.00
2023-03-15T23:01:46.226Z,2.90
2023-03-15T23:04:14.848Z,2.90
2023-03-15T23:06:41.536Z,2.90
2023-03-15T23:09:08.240Z,2.90
2023-03-15T23:11:35.980Z,2.80
2023-03-15T23:14:02.696Z,2.80
2023-03-15T23:16:29.371Z,2.80
2023-03-15T23:18:56.044Z,2.80
2023-03-15T23:21:24.355Z,2.70
2023-03-15T23:23:51.098Z,2.70
2023-03-15T23:26:19.719Z,2.70
2023-03-15T23:28:47.702Z,2.70
2023-03-15T23:31:14.596Z,2.70
2023-03-15T23:33:41.908Z,2.70
2023-03-15T23:36:09.038Z,2.60
2023-03-15T23:38:35.813Z,2.70
2023-03-15T23:41:02.713Z,2.60
2023-03-15T23:43:29.963Z,2.60
2023-03-15T23:46:00.111Z,2.60
2023-03-15T23:48:29.339Z,2.60
2023-03-15T23:50:58.836Z,2.50
2023-03-15T23:53:26.419Z,2.50
2023-03-15T23:55:53.155Z,2.40
2023-03-15T23:58:20.863Z,2.40
